Date,TemperatureHighF,TemperatureAvgF,TemperatureLowF,DewpointHighF,DewpointAvgF,DewpointLowF,HumidityHigh,HumidityAvg,HumidityLow,PressureMaxIn,PressureMinIn,WindSpeedMaxMPH,WindSpeedAvgMPH,GustSpeedMaxMPH,PrecipitationSumIn
2013-6-1,80,69,65,58,52,44,70,55,31,29.06,28.94,4,1,13,0.20
2013-6-2,71,66,57,41,37,30,40,34,33,29.14,28.88,5,4,16,0.00
2013-6-3,67,58,48,37,31,24,40,35,33,29.23,29.14,3,1,11,0.00
2013-6-4,71,61,50,39,33,27,47,36,32,29.35,29.23,2,0,10,0.04
2013-6-5,72,65,53,40,35,26,37,33,32,29.35,29.14,3,1,9,0.00
2013-6-6,67,62,58,37,33,30,35,34,33,29.17,29.03,3,1,10,0.00
2013-6-7,63,58,54,36,34,31,48,40,35,29.09,29.03,2,0,8,0.00
2013-6-8,71,63,58,40,36,33,43,36,32,29.23,29.09,2,0,7,0.00
2013-6-9,74,66,58,43,39,36,47,37,31,29.29,29.14,4,1,10,0.00
2013-6-10,69,66,62,60,53,37,75,64,33,29.14,28.91,1,0,6,0.63
2013-6-11,80,71,65,56,48,42,70,47,30,29.06,28.94,4,2,13,0.00
2013-6-12,74,70,65,53,47,43,52,44,37,29.09,28.82,2,0,8,0.00
2013-6-13,76,69,62,55,46,37,71,47,31,29.06,28.70,4,1,14,1.35
2013-6-14,75,68,62,43,38,35,38,34,31,29.20,29.06,3,1,11,0.00
2013-6-15,78,67,56,45,41,35,55,39,31,29.23,29.06,2,0,9,0.00
2013-6-16,82,71,65,57,47,36,71,43,29,29.09,28.91,5,2,15,0.20
2013-6-17,84,72,59,48,42,36,52,35,29,29.06,28.97,4,1,11,0.00
2013-6-18,71,65,58,46,39,31,57,40,32,29.23,29.03,4,1,9,0.12
2013-6-19,73,64,51,42,35,27,40,34,32,29.32,29.20,2,0,8,0.00
2013-6-20,79,68,54,46,40,33,53,37,30,29.35,29.29,2,0,8,0.00
2013-6-21,86,72,59,50,43,35,48,36,29,29.35,29.20,2,0,8,0.00
2013-6-22,89,75,67,52,47,42,46,37,29,29.23,29.12,3,0,11,0.00
2013-6-23,90,80,68,57,51,45,63,38,28,29.20,29.12,4,1,11,0.00
2013-6-24,90,79,68,52,48,43,52,35,28,29.20,29.06,4,1,10,0.04
2013-6-25,87,75,69,62,49,42,63,40,29,29.12,28.97,4,1,13,0.48
2013-6-26,84,74,67,60,52,46,70,50,30,29.03,28.88,2,0,8,0.04
2013-6-27,82,75,68,62,54,46,68,50,30,28.91,28.82,2,0,8,0.59
2013-6-29,75,71,66,43,40,37,34,33,32,28.91,28.76,3,2,9,0.00
2013-6-30,77,69,63,45,41,36,50,36,31,30.71,28.91,4,2,12,0.00